sensor_id;sensor_type;location;lat;lon;timestamp;P1;durP1;ratioP1;P2;durP2;ratioP2
24325;SDS011;12448;45.532;5.290;2023-06-19T00:02:21;7.97;;;4.53;;
24325;SDS011;12448;45.532;5.290;2023-06-19T00:04:47;7.88;;;4.70;;
24325;SDS011;12448;45.532;5.290;2023-06-19T00:07:13;7.32;;;4.32;;
24325;SDS011;12448;45.532;5.290;2023-06-19T00:09:38;9.63;;;4.20;;
24325;SDS011;12448;45.532;5.290;2023-06-19T00:12:04;5.22;;;4.10;;
24325;SDS011;12448;45.532;5.290;2023-06-19T00:14:30;5.13;;;4.15;;
24325;SDS011;12448;45.532;5.290;2023-06-19T00:16:56;6.00;;;4.10;;
24325;SDS011;12448;45.532;5.290;2023-06-19T00:19:21;7.60;;;4.28;;
24325;SDS011;12448;45.532;5.290;2023-06-19T00:21:47;8.02;;;4.35;;
24325;SDS011;12448;45.532;5.290;2023-06-19T00:24:13;6.15;;;4.30;;
24325;SDS011;12448;45.532;5.290;2023-06-19T00:26:39;8.60;;;4.57;;
24325;SDS011;12448;45.532;5.290;2023-06-19T00:29:05;5.32;;;4.20;;
24325;SDS011;12448;45.532;5.290;2023-06-19T00:31:32;7.30;;;4.40;;
24325;SDS011;12448;45.532;5.290;2023-06-19T00:33:57;11.75;;;4.45;;
24325;SDS011;12448;45.532;5.290;2023-06-19T00:36:23;10.43;;;4.88;;
24325;SDS011;12448;45.532;5.290;2023-06-19T00:38:51;6.55;;;4.10;;
24325;SDS011;12448;45.532;5.290;2023-06-19T00:41:16;7.85;;;4.85;;
24325;SDS011;12448;45.532;5.290;2023-06-19T00:43:43;4.97;;;3.95;;
24325;SDS011;12448;45.532;5.290;2023-06-19T00:46:08;7.63;;;4.60;;
24325;SDS011;12448;45.532;5.290;2023-06-19T00:48:35;8.70;;;4.15;;
24325;SDS011;12448;45.532;5.290;2023-06-19T00:51:01;7.82;;;4.53;;
24325;SDS011;12448;45.532;5.290;2023-06-19T00:53:27;7.60;;;4.60;;
24325;SDS011;12448;45.532;5.290;2023-06-19T00:55:53;9.75;;;4.10;;
24325;SDS011;12448;45.532;5.290;2023-06-19T00:58:21;5.82;;;3.88;;
24325;SDS011;12448;45.532;5.290;2023-06-19T01:00:47;7.35;;;4.50;;
24325;SDS011;12448;45.532;5.290;2023-06-19T01:03:14;8.02;;;4.70;;
24325;SDS011;12448;45.532;5.290;2023-06-19T01:05:40;5.75;;;4.45;;
24325;SDS011;12448;45.532;5.290;2023-06-19T01:10:59;5.75;;;4.10;;
24325;SDS011;12448;45.532;5.290;2023-06-19T01:16:04;11.35;;;4.88;;
24325;SDS011;12448;45.532;5.290;2023-06-19T01:18:32;8.52;;;4.25;;
24325;SDS011;12448;45.532;5.290;2023-06-19T01:21:17;6.50;;;4.30;;
24325;SDS011;12448;45.532;5.290;2023-06-19T01:23:44;6.25;;;4.22;;
24325;SDS011;12448;45.532;5.290;2023-06-19T01:26:10;8.52;;;4.82;;
24325;SDS011;12448;45.532;5.290;2023-06-19T01:28:37;8.55;;;4.40;;
24325;SDS011;12448;45.532;5.290;2023-06-19T01:31:15;9.70;;;4.65;;
24325;SDS011;12448;45.532;5.290;2023-06-19T01:33:47;7.68;;;4.70;;
24325;SDS011;12448;45.532;5.290;2023-06-19T01:36:15;9.85;;;4.38;;
24325;SDS011;12448;45.532;5.290;2023-06-19T01:38:42;5.75;;;4.40;;
24325;SDS011;12448;45.532;5.290;2023-06-19T01:41:10;5.85;;;4.10;;
24325;SDS011;12448;45.532;5.290;2023-06-19T01:43:37;7.65;;;4.65;;
24325;SDS011;12448;45.532;5.290;2023-06-19T01:46:03;6.03;;;4.10;;
24325;SDS011;12448;45.532;5.290;2023-06-19T01:48:29;10.00;;;4.18;;
24325;SDS011;12448;45.532;5.290;2023-06-19T01:50:55;6.07;;;4.53;;
24325;SDS011;12448;45.532;5.290;2023-06-19T01:53:21;7.53;;;3.92;;
24325;SDS011;12448;45.532;5.290;2023-06-19T01:55:46;6.93;;;3.90;;
24325;SDS011;12448;45.532;5.290;2023-06-19T01:58:12;5.72;;;4.20;;
24325;SDS011;12448;45.532;5.290;2023-06-19T02:00:38;7.47;;;3.90;;
24325;SDS011;12448;45.532;5.290;2023-06-19T02:03:04;7.25;;;4.60;;
24325;SDS011;12448;45.532;5.290;2023-06-19T02:05:30;10.32;;;4.13;;
24325;SDS011;12448;45.532;5.290;2023-06-19T02:07:56;6.50;;;3.78;;
24325;SDS011;12448;45.532;5.290;2023-06-19T02:10:22;5.75;;;4.20;;
24325;SDS011;12448;45.532;5.290;2023-06-19T02:12:48;7.20;;;4.20;;
24325;SDS011;12448;45.532;5.290;2023-06-19T02:15:14;5.90;;;3.83;;
24325;SDS011;12448;45.532;5.290;2023-06-19T02:17:39;7.03;;;4.10;;
24325;SDS011;12448;45.532;5.290;2023-06-19T02:20:07;8.27;;;4.05;;
24325;SDS011;12448;45.532;5.290;2023-06-19T02:22:34;4.88;;;4.22;;
24325;SDS011;12448;45.532;5.290;2023-06-19T02:25:00;6.60;;;4.32;;
24325;SDS011;12448;45.532;5.290;2023-06-19T02:27:26;8.45;;;4.22;;
24325;SDS011;12448;45.532;5.290;2023-06-19T02:29:51;5.80;;;4.00;;
24325;SDS011;12448;45.532;5.290;2023-06-19T02:32:17;4.43;;;3.78;;
24325;SDS011;12448;45.532;5.290;2023-06-19T02:34:42;4.15;;;3.67;;
24325;SDS011;12448;45.532;5.290;2023-06-19T02:37:08;7.55;;;4.38;;
24325;SDS011;12448;45.532;5.290;2023-06-19T02:39:33;8.23;;;4.35;;
24325;SDS011;12448;45.532;5.290;2023-06-19T02:41:59;5.18;;;4.18;;
24325;SDS011;12448;45.532;5.290;2023-06-19T02:44:25;5.82;;;4.40;;
24325;SDS011;12448;45.532;5.290;2023-06-19T02:46:50;5.22;;;4.35;;
24325;SDS011;12448;45.532;5.290;2023-06-19T02:49:16;5.35;;;4.20;;
24325;SDS011;12448;45.532;5.290;2023-06-19T02:51:41;8.68;;;3.90;;
24325;SDS011;12448;45.532;5.290;2023-06-19T02:54:07;6.93;;;3.70;;
24325;SDS011;12448;45.532;5.290;2023-06-19T02:56:33;6.13;;;3.83;;
24325;SDS011;12448;45.532;5.290;2023-06-19T02:58:58;7.53;;;3.88;;
24325;SDS011;12448;45.532;5.290;2023-06-19T03:01:24;9.18;;;4.07;;
24325;SDS011;12448;45.532;5.290;2023-06-19T03:03:49;5.68;;;3.90;;
24325;SDS011;12448;45.532;5.290;2023-06-19T03:06:17;7.95;;;4.28;;
24325;SDS011;12448;45.532;5.290;2023-06-19T03:08:43;7.90;;;3.95;;
24325;SDS011;12448;45.532;5.290;2023-06-19T03:11:09;4.72;;;4.10;;
24325;SDS011;12448;45.532;5.290;2023-06-19T03:13:46;6.97;;;3.65;;
24325;SDS011;12448;45.532;5.290;2023-06-19T03:16:13;7.68;;;4.53;;
24325;SDS011;12448;45.532;5.290;2023-06-19T03:18:42;6.20;;;4.22;;
24325;SDS011;12448;45.532;5.290;2023-06-19T03:21:14;9.10;;;3.97;;
24325;SDS011;12448;45.532;5.290;2023-06-19T03:23:40;7.18;;;4.28;;
24325;SDS011;12448;45.532;5.290;2023-06-19T03:26:09;8.57;;;4.18;;
24325;SDS011;12448;45.532;5.290;2023-06-19T03:28:35;7.45;;;4.10;;
24325;SDS011;12448;45.532;5.290;2023-06-19T03:31:01;10.27;;;4.47;;
24325;SDS011;12448;45.532;5.290;2023-06-19T03:33:27;7.97;;;3.92;;
24325;SDS011;12448;45.532;5.290;2023-06-19T03:35:52;6.00;;;4.13;;
24325;SDS011;12448;45.532;5.290;2023-06-19T03:38:18;6.03;;;4.13;;
24325;SDS011;12448;45.532;5.290;2023-06-19T03:40:44;6.80;;;4.10;;
24325;SDS011;12448;45.532;5.290;2023-06-19T03:43:09;6.22;;;4.03;;
24325;SDS011;12448;45.532;5.290;2023-06-19T03:45:36;6.55;;;4.35;;
24325;SDS011;12448;45.532;5.290;2023-06-19T03:48:02;5.85;;;3.92;;
24325;SDS011;12448;45.532;5.290;2023-06-19T03:50:28;4.97;;;4.00;;
24325;SDS011;12448;45.532;5.290;2023-06-19T03:52:53;6.63;;;4.40;;
24325;SDS011;12448;45.532;5.290;2023-06-19T03:55:19;6.07;;;4.20;;
24325;SDS011;12448;45.532;5.290;2023-06-19T03:57:44;9.95;;;4.38;;
24325;SDS011;12448;45.532;5.290;2023-06-19T04:00:10;9.57;;;4.60;;
24325;SDS011;12448;45.532;5.290;2023-06-19T04:02:38;6.95;;;4.40;;
24325;SDS011;12448;45.532;5.290;2023-06-19T04:05:04;7.32;;;4.40;;
24325;SDS011;12448;45.532;5.290;2023-06-19T04:07:30;4.88;;;4.25;;
24325;SDS011;12448;45.532;5.290;2023-06-19T04:09:57;7.75;;;4.30;;
24325;SDS011;12448;45.532;5.290;2023-06-19T04:12:23;5.40;;;4.13;;
24325;SDS011;12448;45.532;5.290;2023-06-19T04:14:48;7.63;;;4.32;;
24325;SDS011;12448;45.532;5.290;2023-06-19T04:17:14;5.75;;;4.30;;
24325;SDS011;12448;45.532;5.290;2023-06-19T04:19:40;7.57;;;4.22;;
24325;SDS011;12448;45.532;5.290;2023-06-19T04:22:06;5.93;;;4.47;;
24325;SDS011;12448;45.532;5.290;2023-06-19T04:24:32;7.85;;;4.40;;
24325;SDS011;12448;45.532;5.290;2023-06-19T04:26:58;4.82;;;3.97;;
24325;SDS011;12448;45.532;5.290;2023-06-19T04:29:23;5.45;;;4.65;;
24325;SDS011;12448;45.532;5.290;2023-06-19T04:31:49;8.45;;;4.30;;
24325;SDS011;12448;45.532;5.290;2023-06-19T04:34:15;7.25;;;4.45;;
24325;SDS011;12448;45.532;5.290;2023-06-19T04:36:42;9.80;;;4.60;;
24325;SDS011;12448;45.532;5.290;2023-06-19T04:39:08;11.70;;;5.20;;
24325;SDS011;12448;45.532;5.290;2023-06-19T04:41:34;6.70;;;4.55;;
24325;SDS011;12448;45.532;5.290;2023-06-19T04:44:06;7.55;;;4.63;;
24325;SDS011;12448;45.532;5.290;2023-06-19T04:46:33;11.32;;;5.38;;
24325;SDS011;12448;45.532;5.290;2023-06-19T04:48:59;8.65;;;4.60;;
24325;SDS011;12448;45.532;5.290;2023-06-19T04:51:24;5.93;;;4.25;;
24325;SDS011;12448;45.532;5.290;2023-06-19T04:53:51;5.55;;;4.30;;
24325;SDS011;12448;45.532;5.290;2023-06-19T04:56:17;7.30;;;4.53;;
24325;SDS011;12448;45.532;5.290;2023-06-19T04:58:43;7.53;;;4.40;;
24325;SDS011;12448;45.532;5.290;2023-06-19T05:01:12;7.88;;;4.40;;
24325;SDS011;12448;45.532;5.290;2023-06-19T05:03:39;5.30;;;4.45;;
24325;SDS011;12448;45.532;5.290;2023-06-19T05:06:05;9.15;;;5.22;;
24325;SDS011;12448;45.532;5.290;2023-06-19T05:08:30;6.80;;;4.57;;
24325;SDS011;12448;45.532;5.290;2023-06-19T05:10:56;8.18;;;4.40;;
24325;SDS011;12448;45.532;5.290;2023-06-19T05:13:23;11.00;;;4.50;;
24325;SDS011;12448;45.532;5.290;2023-06-19T05:15:49;8.63;;;4.10;;
24325;SDS011;12448;45.532;5.290;2023-06-19T05:18:18;4.30;;;3.88;;
24325;SDS011;12448;45.532;5.290;2023-06-19T05:20:43;6.63;;;4.68;;
24325;SDS011;12448;45.532;5.290;2023-06-19T05:23:10;7.50;;;4.43;;
24325;SDS011;12448;45.532;5.290;2023-06-19T05:25:35;7.63;;;4.70;;
24325;SDS011;12448;45.532;5.290;2023-06-19T05:28:01;6.80;;;4.68;;
24325;SDS011;12448;45.532;5.290;2023-06-19T05:30:27;6.45;;;4.32;;
24325;SDS011;12448;45.532;5.290;2023-06-19T05:32:52;10.00;;;5.00;;
24325;SDS011;12448;45.532;5.290;2023-06-19T05:35:18;8.35;;;4.53;;
24325;SDS011;12448;45.532;5.290;2023-06-19T05:37:44;8.82;;;5.20;;
24325;SDS011;12448;45.532;5.290;2023-06-19T05:40:10;7.43;;;4.72;;
24325;SDS011;12448;45.532;5.290;2023-06-19T05:42:36;7.57;;;4.93;;
24325;SDS011;12448;45.532;5.290;2023-06-19T05:45:02;8.10;;;4.97;;
24325;SDS011;12448;45.532;5.290;2023-06-19T05:47:28;6.78;;;4.78;;
24325;SDS011;12448;45.532;5.290;2023-06-19T05:49:56;10.95;;;4.90;;
24325;SDS011;12448;45.532;5.290;2023-06-19T05:52:22;7.07;;;4.78;;
24325;SDS011;12448;45.532;5.290;2023-06-19T05:54:48;6.47;;;4.97;;
24325;SDS011;12448;45.532;5.290;2023-06-19T05:57:13;6.82;;;4.85;;
24325;SDS011;12448;45.532;5.290;2023-06-19T05:59:41;7.30;;;4.70;;
24325;SDS011;12448;45.532;5.290;2023-06-19T06:02:07;7.68;;;4.85;;
24325;SDS011;12448;45.532;5.290;2023-06-19T06:04:33;10.00;;;4.55;;
24325;SDS011;12448;45.532;5.290;2023-06-19T06:06:59;7.72;;;5.35;;
24325;SDS011;12448;45.532;5.290;2023-06-19T06:09:25;6.28;;;4.93;;
24325;SDS011;12448;45.532;5.290;2023-06-19T06:11:52;9.05;;;5.10;;
24325;SDS011;12448;45.532;5.290;2023-06-19T06:14:17;6.45;;;4.43;;
24325;SDS011;12448;45.532;5.290;2023-06-19T06:16:43;7.15;;;5.10;;
24325;SDS011;12448;45.532;5.290;2023-06-19T06:19:09;7.60;;;4.85;;
24325;SDS011;12448;45.532;5.290;2023-06-19T06:21:34;7.25;;;4.55;;
24325;SDS011;12448;45.532;5.290;2023-06-19T06:24:00;9.95;;;4.93;;
24325;SDS011;12448;45.532;5.290;2023-06-19T06:26:25;6.95;;;4.70;;
24325;SDS011;12448;45.532;5.290;2023-06-19T06:28:52;8.80;;;5.35;;
24325;SDS011;12448;45.532;5.290;2023-06-19T06:31:18;5.78;;;4.90;;
24325;SDS011;12448;45.532;5.290;2023-06-19T06:33:44;13.07;;;4.63;;
24325;SDS011;12448;45.532;5.290;2023-06-19T06:36:09;9.70;;;4.97;;
24325;SDS011;12448;45.532;5.290;2023-06-19T06:38:35;7.80;;;5.00;;
24325;SDS011;12448;45.532;5.290;2023-06-19T06:41:01;7.63;;;4.85;;
24325;SDS011;12448;45.532;5.290;2023-06-19T06:43:27;6.72;;;4.63;;
24325;SDS011;12448;45.532;5.290;2023-06-19T06:45:53;9.35;;;5.15;;
24325;SDS011;12448;45.532;5.290;2023-06-19T06:48:18;7.55;;;5.25;;
24325;SDS011;12448;45.532;5.290;2023-06-19T06:50:44;7.60;;;4.95;;
24325;SDS011;12448;45.532;5.290;2023-06-19T06:53:10;10.75;;;5.30;;
24325;SDS011;12448;45.532;5.290;2023-06-19T06:55:35;9.52;;;5.45;;
24325;SDS011;12448;45.532;5.290;2023-06-19T06:58:01;7.43;;;5.30;;
24325;SDS011;12448;45.532;5.290;2023-06-19T07:00:26;8.90;;;5.55;;
24325;SDS011;12448;45.532;5.290;2023-06-19T07:02:52;8.27;;;5.38;;
24325;SDS011;12448;45.532;5.290;2023-06-19T07:05:18;7.47;;;5.80;;
24325;SDS011;12448;45.532;5.290;2023-06-19T07:07:44;8.55;;;5.97;;
24325;SDS011;12448;45.532;5.290;2023-06-19T07:10:09;10.02;;;6.28;;
24325;SDS011;12448;45.532;5.290;2023-06-19T07:12:35;10.68;;;5.57;;
24325;SDS011;12448;45.532;5.290;2023-06-19T07:15:09;9.57;;;5.90;;
24325;SDS011;12448;45.532;5.290;2023-06-19T07:17:34;7.88;;;5.18;;
24325;SDS011;12448;45.532;5.290;2023-06-19T07:20:00;6.75;;;4.95;;
24325;SDS011;12448;45.532;5.290;2023-06-19T07:22:25;9.02;;;4.97;;
24325;SDS011;12448;45.532;5.290;2023-06-19T07:24:51;7.70;;;5.25;;
24325;SDS011;12448;45.532;5.290;2023-06-19T07:27:16;7.05;;;5.20;;
24325;SDS011;12448;45.532;5.290;2023-06-19T07:29:43;10.20;;;5.50;;
24325;SDS011;12448;45.532;5.290;2023-06-19T07:32:09;7.45;;;5.38;;
24325;SDS011;12448;45.532;5.290;2023-06-19T07:34:35;7.55;;;5.55;;
24325;SDS011;12448;45.532;5.290;2023-06-19T07:37:01;7.65;;;5.35;;
24325;SDS011;12448;45.532;5.290;2023-06-19T07:39:26;6.95;;;5.15;;
24325;SDS011;12448;45.532;5.290;2023-06-19T07:41:52;9.18;;;5.50;;
24325;SDS011;12448;45.532;5.290;2023-06-19T07:44:18;11.98;;;5.72;;
24325;SDS011;12448;45.532;5.290;2023-06-19T07:46:45;8.98;;;5.22;;
24325;SDS011;12448;45.532;5.290;2023-06-19T07:49:11;7.82;;;5.68;;
24325;SDS011;12448;45.532;5.290;2023-06-19T07:51:37;11.00;;;5.60;;
24325;SDS011;12448;45.532;5.290;2023-06-19T07:54:02;8.57;;;5.47;;
24325;SDS011;12448;45.532;5.290;2023-06-19T07:56:28;7.47;;;4.88;;
24325;SDS011;12448;45.532;5.290;2023-06-19T07:58:54;6.70;;;5.50;;
24325;SDS011;12448;45.532;5.290;2023-06-19T08:01:19;6.63;;;5.35;;
24325;SDS011;12448;45.532;5.290;2023-06-19T08:03:45;6.68;;;5.18;;
24325;SDS011;12448;45.532;5.290;2023-06-19T08:06:11;7.38;;;5.07;;
24325;SDS011;12448;45.532;5.290;2023-06-19T08:08:36;7.45;;;5.00;;
24325;SDS011;12448;45.532;5.290;2023-06-19T08:11:02;11.25;;;5.22;;
24325;SDS011;12448;45.532;5.290;2023-06-19T08:13:28;6.63;;;5.05;;
24325;SDS011;12448;45.532;5.290;2023-06-19T08:15:53;6.97;;;4.82;;
24325;SDS011;12448;45.532;5.290;2023-06-19T08:18:19;9.18;;;5.43;;
24325;SDS011;12448;45.532;5.290;2023-06-19T08:20:44;5.90;;;4.50;;
24325;SDS011;12448;45.532;5.290;2023-06-19T08:23:10;12.23;;;4.85;;
24325;SDS011;12448;45.532;5.290;2023-06-19T08:25:36;7.68;;;4.88;;
24325;SDS011;12448;45.532;5.290;2023-06-19T08:28:01;9.40;;;5.00;;
24325;SDS011;12448;45.532;5.290;2023-06-19T08:30:27;7.00;;;5.32;;
24325;SDS011;12448;45.532;5.290;2023-06-19T08:32:53;6.13;;;4.70;;
24325;SDS011;12448;45.532;5.290;2023-06-19T08:35:18;7.10;;;5.50;;
24325;SDS011;12448;45.532;5.290;2023-06-19T08:37:44;9.27;;;5.18;;
24325;SDS011;12448;45.532;5.290;2023-06-19T08:40:09;8.02;;;5.10;;
24325;SDS011;12448;45.532;5.290;2023-06-19T08:42:37;9.60;;;5.55;;
24325;SDS011;12448;45.532;5.290;2023-06-19T08:45:04;8.50;;;5.22;;
24325;SDS011;12448;45.532;5.290;2023-06-19T08:47:31;8.27;;;5.05;;
24325;SDS011;12448;45.532;5.290;2023-06-19T08:49:58;8.45;;;5.25;;
24325;SDS011;12448;45.532;5.290;2023-06-19T08:52:24;18.25;;;5.90;;
24325;SDS011;12448;45.532;5.290;2023-06-19T08:54:50;6.18;;;4.93;;
24325;SDS011;12448;45.532;5.290;2023-06-19T08:57:15;8.82;;;5.45;;
24325;SDS011;12448;45.532;5.290;2023-06-19T08:59:48;6.88;;;5.15;;
24325;SDS011;12448;45.532;5.290;2023-06-19T09:02:15;7.47;;;5.07;;
24325;SDS011;12448;45.532;5.290;2023-06-19T09:04:40;6.90;;;4.72;;
24325;SDS011;12448;45.532;5.290;2023-06-19T09:07:07;8.18;;;4.57;;
24325;SDS011;12448;45.532;5.290;2023-06-19T09:09:33;8.70;;;4.68;;
24325;SDS011;12448;45.532;5.290;2023-06-19T09:12:04;7.40;;;4.47;;
24325;SDS011;12448;45.532;5.290;2023-06-19T09:14:34;6.15;;;4.72;;
24325;SDS011;12448;45.532;5.290;2023-06-19T09:17:02;10.35;;;4.72;;
24325;SDS011;12448;45.532;5.290;2023-06-19T09:19:29;7.15;;;5.13;;
24325;SDS011;12448;45.532;5.290;2023-06-19T09:22:02;8.90;;;4.85;;
24325;SDS011;12448;45.532;5.290;2023-06-19T09:24:36;5.50;;;4.80;;
24325;SDS011;12448;45.532;5.290;2023-06-19T09:27:09;7.53;;;4.55;;
24325;SDS011;12448;45.532;5.290;2023-06-19T09:29:39;6.18;;;4.95;;
24325;SDS011;12448;45.532;5.290;2023-06-19T09:32:18;7.22;;;4.90;;
24325;SDS011;12448;45.532;5.290;2023-06-19T09:34:45;9.23;;;4.93;;
24325;SDS011;12448;45.532;5.290;2023-06-19T09:37:12;10.27;;;4.90;;
24325;SDS011;12448;45.532;5.290;2023-06-19T09:39:38;7.43;;;4.95;;
24325;SDS011;12448;45.532;5.290;2023-06-19T09:42:08;10.10;;;5.30;;
24325;SDS011;12448;45.532;5.290;2023-06-19T09:44:43;5.97;;;4.63;;
24325;SDS011;12448;45.532;5.290;2023-06-19T09:47:21;7.50;;;5.15;;
24325;SDS011;12448;45.532;5.290;2023-06-19T09:49:51;7.60;;;4.72;;
24325;SDS011;12448;45.532;5.290;2023-06-19T09:52:20;6.80;;;4.80;;
24325;SDS011;12448;45.532;5.290;2023-06-19T09:54:48;13.65;;;5.80;;
24325;SDS011;12448;45.532;5.290;2023-06-19T09:57:15;5.20;;;4.68;;
24325;SDS011;12448;45.532;5.290;2023-06-19T09:59:41;5.95;;;5.20;;
24325;SDS011;12448;45.532;5.290;2023-06-19T10:02:08;5.40;;;4.90;;
24325;SDS011;12448;45.532;5.290;2023-06-19T10:04:45;6.60;;;4.85;;
24325;SDS011;12448;45.532;5.290;2023-06-19T10:07:21;7.20;;;4.78;;
24325;SDS011;12448;45.532;5.290;2023-06-19T10:09:57;7.78;;;4.88;;
24325;SDS011;12448;45.532;5.290;2023-06-19T10:12:37;5.07;;;4.32;;
24325;SDS011;12448;45.532;5.290;2023-06-19T10:17:46;4.50;;;4.07;;
24325;SDS011;12448;45.532;5.290;2023-06-19T10:20:23;8.88;;;4.50;;
24325;SDS011;12448;45.532;5.290;2023-06-19T10:23:07;5.57;;;4.03;;
24325;SDS011;12448;45.532;5.290;2023-06-19T10:25:34;12.38;;;4.95;;
24325;SDS011;12448;45.532;5.290;2023-06-19T10:28:01;6.53;;;4.65;;
24325;SDS011;12448;45.532;5.290;2023-06-19T10:30:27;6.43;;;4.10;;
24325;SDS011;12448;45.532;5.290;2023-06-19T10:32:54;7.20;;;4.13;;
24325;SDS011;12448;45.532;5.290;2023-06-19T10:35:20;5.57;;;4.05;;
24325;SDS011;12448;45.532;5.290;2023-06-19T10:37:46;5.95;;;3.95;;
24325;SDS011;12448;45.532;5.290;2023-06-19T10:40:13;5.07;;;4.13;;
24325;SDS011;12448;45.532;5.290;2023-06-19T10:42:39;5.78;;;4.15;;
24325;SDS011;12448;45.532;5.290;2023-06-19T10:45:09;8.57;;;4.90;;
24325;SDS011;12448;45.532;5.290;2023-06-19T10:47:37;6.53;;;4.13;;
24325;SDS011;12448;45.532;5.290;2023-06-19T10:50:04;6.28;;;4.25;;
24325;SDS011;12448;45.532;5.290;2023-06-19T10:52:34;5.43;;;3.55;;
24325;SDS011;12448;45.532;5.290;2023-06-19T10:55:00;6.32;;;3.92;;
24325;SDS011;12448;45.532;5.290;2023-06-19T10:57:29;6.60;;;4.35;;
24325;SDS011;12448;45.532;5.290;2023-06-19T10:59:55;6.35;;;4.10;;
24325;SDS011;12448;45.532;5.290;2023-06-19T11:02:21;6.38;;;3.63;;
24325;SDS011;12448;45.532;5.290;2023-06-19T11:04:48;5.60;;;3.95;;
24325;SDS011;12448;45.532;5.290;2023-06-19T11:07:14;5.50;;;3.90;;
24325;SDS011;12448;45.532;5.290;2023-06-19T11:09:39;4.95;;;3.67;;
24325;SDS011;12448;45.532;5.290;2023-06-19T11:12:05;7.88;;;4.25;;
24325;SDS011;12448;45.532;5.290;2023-06-19T11:14:33;8.25;;;4.10;;
24325;SDS011;12448;45.532;5.290;2023-06-19T11:17:04;6.72;;;4.25;;
24325;SDS011;12448;45.532;5.290;2023-06-19T11:19:31;7.93;;;3.75;;
24325;SDS011;12448;45.532;5.290;2023-06-19T11:22:01;5.97;;;4.35;;
24325;SDS011;12448;45.532;5.290;2023-06-19T11:24:28;5.95;;;4.07;;
24325;SDS011;12448;45.532;5.290;2023-06-19T11:26:55;5.60;;;4.38;;
24325;SDS011;12448;45.532;5.290;2023-06-19T11:29:24;8.77;;;4.60;;
24325;SDS011;12448;45.532;5.290;2023-06-19T11:32:04;6.40;;;4.03;;
24325;SDS011;12448;45.532;5.290;2023-06-19T11:34:31;5.28;;;4.25;;
24325;SDS011;12448;45.532;5.290;2023-06-19T11:37:02;6.75;;;4.13;;
24325;SDS011;12448;45.532;5.290;2023-06-19T11:39:38;7.80;;;4.05;;
24325;SDS011;12448;45.532;5.290;2023-06-19T11:42:04;9.57;;;3.80;;
24325;SDS011;12448;45.532;5.290;2023-06-19T11:44:30;5.07;;;4.05;;
24325;SDS011;12448;45.532;5.290;2023-06-19T11:46:56;6.95;;;4.07;;
24325;SDS011;12448;45.532;5.290;2023-06-19T11:49:24;8.57;;;4.10;;
24325;SDS011;12448;45.532;5.290;2023-06-19T11:51:50;5.80;;;3.90;;
24325;SDS011;12448;45.532;5.290;2023-06-19T11:54:15;10.27;;;4.40;;
24325;SDS011;12448;45.532;5.290;2023-06-19T11:56:42;8.35;;;4.30;;
24325;SDS011;12448;45.532;5.290;2023-06-19T11:59:08;7.05;;;3.85;;
24325;SDS011;12448;45.532;5.290;2023-06-19T12:01:36;6.30;;;4.20;;
24325;SDS011;12448;45.532;5.290;2023-06-19T12:04:02;9.95;;;4.00;;
24325;SDS011;12448;45.532;5.290;2023-06-19T12:06:29;4.85;;;3.90;;
24325;SDS011;12448;45.532;5.290;2023-06-19T12:08:55;6.28;;;3.95;;
24325;SDS011;12448;45.532;5.290;2023-06-19T12:11:21;5.75;;;3.28;;
24325;SDS011;12448;45.532;5.290;2023-06-19T12:13:47;4.88;;;3.50;;
24325;SDS011;12448;45.532;5.290;2023-06-19T12:16:13;7.93;;;3.80;;
24325;SDS011;12448;45.532;5.290;2023-06-19T12:18:40;6.32;;;3.70;;
24325;SDS011;12448;45.532;5.290;2023-06-19T12:21:08;7.75;;;3.90;;
24325;SDS011;12448;45.532;5.290;2023-06-19T12:23:34;4.45;;;3.78;;
24325;SDS011;12448;45.532;5.290;2023-06-19T12:26:00;5.20;;;4.20;;
24325;SDS011;12448;45.532;5.290;2023-06-19T12:28:26;5.18;;;3.83;;
24325;SDS011;12448;45.532;5.290;2023-06-19T12:30:52;5.55;;;3.95;;
24325;SDS011;12448;45.532;5.290;2023-06-19T12:33:18;7.63;;;3.75;;
24325;SDS011;12448;45.532;5.290;2023-06-19T12:35:45;6.70;;;4.13;;
24325;SDS011;12448;45.532;5.290;2023-06-19T12:38:15;5.32;;;3.55;;
24325;SDS011;12448;45.532;5.290;2023-06-19T12:40:50;8.07;;;4.03;;
24325;SDS011;12448;45.532;5.290;2023-06-19T12:43:22;10.55;;;4.32;;
24325;SDS011;12448;45.532;5.290;2023-06-19T12:45:51;6.43;;;4.30;;
24325;SDS011;12448;45.532;5.290;2023-06-19T12:48:20;5.03;;;3.90;;
24325;SDS011;12448;45.532;5.290;2023-06-19T12:50:48;4.32;;;3.92;;
24325;SDS011;12448;45.532;5.290;2023-06-19T12:56:46;4.93;;;4.10;;
24325;SDS011;12448;45.532;5.290;2023-06-19T12:59:50;6.47;;;3.90;;
24325;SDS011;12448;45.532;5.290;2023-06-19T13:02:25;9.38;;;4.40;;
24325;SDS011;12448;45.532;5.290;2023-06-19T13:07:42;5.40;;;4.10;;
24325;SDS011;12448;45.532;5.290;2023-06-19T13:13:28;7.57;;;4.40;;
24325;SDS011;12448;45.532;5.290;2023-06-19T13:16:12;5.80;;;4.07;;
24325;SDS011;12448;45.532;5.290;2023-06-19T13:18:38;7.30;;;4.63;;
24325;SDS011;12448;45.532;5.290;2023-06-19T13:21:33;5.70;;;4.57;;
24325;SDS011;12448;45.532;5.290;2023-06-19T13:27:31;7.53;;;4.28;;
24325;SDS011;12448;45.532;5.290;2023-06-19T13:30:11;5.90;;;4.38;;
24325;SDS011;12448;45.532;5.290;2023-06-19T13:32:37;6.93;;;4.45;;
24325;SDS011;12448;45.532;5.290;2023-06-19T13:35:07;8.15;;;4.40;;
24325;SDS011;12448;45.532;5.290;2023-06-19T13:37:46;8.80;;;4.40;;
24325;SDS011;12448;45.532;5.290;2023-06-19T13:40:14;7.95;;;4.63;;
24325;SDS011;12448;45.532;5.290;2023-06-19T13:42:40;7.68;;;4.38;;
24325;SDS011;12448;45.532;5.290;2023-06-19T13:45:09;8.32;;;4.43;;
24325;SDS011;12448;45.532;5.290;2023-06-19T13:47:35;5.80;;;4.10;;
24325;SDS011;12448;45.532;5.290;2023-06-19T13:50:02;7.30;;;4.25;;
24325;SDS011;12448;45.532;5.290;2023-06-19T13:52:46;5.70;;;4.50;;
24325;SDS011;12448;45.532;5.290;2023-06-19T13:55:26;7.53;;;4.40;;
24325;SDS011;12448;45.532;5.290;2023-06-19T13:57:58;9.77;;;4.38;;
24325;SDS011;12448;45.532;5.290;2023-06-19T14:00:38;9.02;;;4.40;;
24325;SDS011;12448;45.532;5.290;2023-06-19T14:03:09;7.25;;;4.13;;
24325;SDS011;12448;45.532;5.290;2023-06-19T14:05:40;4.73;;;3.57;;
24325;SDS011;12448;45.532;5.290;2023-06-19T14:08:32;10.00;;;3.60;;
24325;SDS011;12448;45.532;5.290;2023-06-19T14:11:06;7.50;;;4.35;;
24325;SDS011;12448;45.532;5.290;2023-06-19T14:13:32;5.65;;;4.28;;
24325;SDS011;12448;45.532;5.290;2023-06-19T14:15:58;4.45;;;3.95;;
24325;SDS011;12448;45.532;5.290;2023-06-19T14:18:30;6.82;;;3.90;;
24325;SDS011;12448;45.532;5.290;2023-06-19T14:21:08;7.07;;;4.10;;
24325;SDS011;12448;45.532;5.290;2023-06-19T14:24:07;5.03;;;3.85;;
24325;SDS011;12448;45.532;5.290;2023-06-19T14:26:39;5.50;;;3.90;;
24325;SDS011;12448;45.532;5.290;2023-06-19T14:39:22;5.05;;;4.28;;
24325;SDS011;12448;45.532;5.290;2023-06-19T14:41:55;6.57;;;4.05;;
24325;SDS011;12448;45.532;5.290;2023-06-19T14:44:23;8.35;;;4.38;;
24325;SDS011;12448;45.532;5.290;2023-06-19T14:47:31;4.55;;;3.88;;
24325;SDS011;12448;45.532;5.290;2023-06-19T14:49:59;5.78;;;4.35;;
24325;SDS011;12448;45.532;5.290;2023-06-19T14:52:35;11.88;;;4.47;;
24325;SDS011;12448;45.532;5.290;2023-06-19T14:58:53;5.85;;;4.05;;
24325;SDS011;12448;45.532;5.290;2023-06-19T15:11:45;6.30;;;4.70;;
24325;SDS011;12448;45.532;5.290;2023-06-19T15:38:06;6.05;;;4.65;;
24325;SDS011;12448;45.532;5.290;2023-06-19T15:40:55;7.90;;;5.15;;
24325;SDS011;12448;45.532;5.290;2023-06-19T15:43:24;5.18;;;4.35;;
24325;SDS011;12448;45.532;5.290;2023-06-19T15:45:54;9.57;;;4.50;;
24325;SDS011;12448;45.532;5.290;2023-06-19T15:51:49;6.22;;;4.93;;
24325;SDS011;12448;45.532;5.290;2023-06-19T15:54:42;7.93;;;4.63;;
24325;SDS011;12448;45.532;5.290;2023-06-19T15:57:25;9.30;;;4.85;;
24325;SDS011;12448;45.532;5.290;2023-06-19T16:00:00;8.00;;;4.93;;
24325;SDS011;12448;45.532;5.290;2023-06-19T16:02:35;5.30;;;4.80;;
24325;SDS011;12448;45.532;5.290;2023-06-19T16:14:16;10.20;;;4.97;;